createdAt,value
2022-08-30T00:00:26.004Z,22.26
2022-08-30T00:02:54.590Z,22.21
2022-08-30T00:05:23.003Z,22.20
2022-08-30T00:07:51.832Z,22.16
2022-08-30T00:10:22.005Z,22.12
2022-08-30T00:12:50.483Z,22.07
2022-08-30T00:15:22.090Z,22.06
2022-08-30T00:17:50.516Z,22.01
2022-08-30T00:20:21.322Z,21.99
2022-08-30T00:22:50.011Z,21.94
2022-08-30T00:25:19.335Z,21.89
2022-08-30T00:27:49.040Z,21.85
2022-08-30T00:30:19.682Z,21.85
2022-08-30T00:32:48.368Z,21.81
2022-08-30T00:35:18.696Z,21.81
2022-08-30T00:37:46.916Z,21.76
2022-08-30T00:40:17.168Z,21.73
2022-08-30T00:42:47.679Z,21.73
2022-08-30T00:45:24.606Z,21.69
2022-08-30T00:47:53.509Z,21.68
2022-08-30T00:50:24.627Z,21.67
2022-08-30T00:52:57.216Z,21.64
2022-08-30T00:55:25.787Z,21.59
2022-08-30T00:57:59.612Z,21.55
2022-08-30T01:00:31.161Z,21.53
2022-08-30T01:02:59.711Z,21.49
2022-08-30T01:05:28.639Z,21.44
2022-08-30T01:10:25.143Z,21.41
2022-08-30T01:12:54.092Z,21.36
2022-08-30T01:15:23.401Z,21.33
2022-08-30T01:17:53.388Z,21.32
2022-08-30T01:20:28.509Z,21.30
2022-08-30T01:23:14.880Z,21.30
2022-08-30T01:25:46.662Z,21.25
2022-08-30T01:28:18.554Z,21.22
2022-08-30T01:30:47.175Z,21.23
2022-08-30T01:33:16.233Z,21.19
2022-08-30T01:35:49.697Z,21.18
2022-08-30T01:38:22.485Z,21.19
2022-08-30T01:40:50.771Z,21.19
2022-08-30T01:43:20.664Z,21.14
2022-08-30T01:45:49.050Z,21.13
2022-08-30T01:48:17.322Z,21.11
2022-08-30T01:50:45.670Z,21.04
2022-08-30T01:53:14.203Z,21.05
2022-08-30T01:55:44.316Z,21.04
2022-08-30T01:58:13.069Z,21.08
2022-08-30T02:00:42.083Z,21.05
2022-08-30T02:03:10.372Z,21.01
2022-08-30T02:05:39.357Z,21.00
2022-08-30T02:08:07.611Z,21.00
2022-08-30T02:10:36.030Z,20.97
2022-08-30T02:13:05.800Z,20.98
2022-08-30T02:15:41.894Z,20.94
2022-08-30T02:18:11.750Z,20.97
2022-08-30T02:20:41.007Z,20.95
2022-08-30T02:23:09.372Z,20.94
2022-08-30T02:25:37.584Z,20.90
2022-08-30T02:28:07.927Z,20.88
2022-08-30T02:30:36.782Z,20.87
2022-08-30T02:33:05.869Z,20.86
2022-08-30T02:35:34.098Z,20.85
2022-08-30T02:38:02.295Z,20.80
2022-08-30T02:40:31.162Z,20.80
2022-08-30T02:42:59.546Z,20.79
2022-08-30T02:45:29.606Z,20.76
2022-08-30T02:47:57.810Z,20.74
2022-08-30T02:50:26.374Z,20.73
2022-08-30T02:52:55.480Z,20.71
2022-08-30T02:55:24.430Z,20.72
2022-08-30T02:57:55.728Z,20.71
2022-08-30T03:00:27.132Z,20.66
2022-08-30T03:02:57.143Z,20.65
2022-08-30T03:05:26.225Z,20.62
2022-08-30T03:07:54.332Z,20.61
2022-08-30T03:10:23.312Z,20.60
2022-08-30T03:12:51.721Z,20.58
2022-08-30T03:15:19.959Z,20.56
2022-08-30T03:17:48.190Z,20.53
2022-08-30T03:20:19.497Z,20.50
2022-08-30T03:22:48.664Z,20.47
2022-08-30T03:25:17.578Z,20.49
2022-08-30T03:27:45.781Z,20.48
2022-08-30T03:30:15.532Z,20.44
2022-08-30T03:32:44.248Z,20.41
2022-08-30T03:35:14.615Z,20.39
2022-08-30T03:37:44.381Z,20.39
2022-08-30T03:40:15.225Z,20.39
2022-08-30T03:42:43.863Z,20.35
2022-08-30T03:45:14.024Z,20.32
2022-08-30T03:47:43.019Z,20.30
2022-08-30T03:50:13.449Z,20.25
2022-08-30T03:52:41.715Z,20.22
2022-08-30T03:55:11.636Z,20.22
2022-08-30T03:57:43.439Z,20.18
2022-08-30T04:00:13.937Z,20.16
2022-08-30T04:02:43.049Z,20.17
2022-08-30T04:05:12.180Z,20.16
2022-08-30T04:07:43.012Z,20.11
2022-08-30T04:10:13.039Z,20.09
2022-08-30T04:12:43.280Z,20.10
2022-08-30T04:15:15.052Z,20.09
2022-08-30T04:17:43.431Z,20.07
2022-08-30T04:20:12.287Z,20.06
2022-08-30T04:22:40.674Z,20.04
2022-08-30T04:25:15.402Z,20.04
2022-08-30T04:27:46.227Z,20.05
2022-08-30T04:30:16.327Z,20.02
2022-08-30T04:32:45.070Z,20.04
2022-08-30T04:35:14.570Z,20.01
2022-08-30T04:37:43.254Z,20.04
2022-08-30T04:40:12.633Z,19.99
2022-08-30T04:42:42.641Z,20.01
2022-08-30T04:45:15.886Z,20.02
2022-08-30T04:47:44.637Z,20.00
2022-08-30T04:50:15.507Z,19.98
2022-08-30T04:52:44.564Z,19.95
2022-08-30T04:55:20.017Z,19.97
2022-08-30T04:57:49.394Z,19.97
2022-08-30T05:00:20.948Z,19.96
2022-08-30T05:02:49.435Z,19.96
2022-08-30T05:05:36.203Z,19.94
2022-08-30T05:08:05.488Z,19.93
2022-08-30T05:10:34.449Z,19.93
2022-08-30T05:13:04.228Z,19.90
2022-08-30T05:15:36.174Z,19.91
2022-08-30T05:18:04.833Z,19.90
2022-08-30T05:20:33.238Z,19.91
2022-08-30T05:23:02.036Z,19.88
2022-08-30T05:25:32.716Z,19.86
2022-08-30T05:28:01.214Z,19.87
2022-08-30T05:30:33.253Z,19.86
2022-08-30T05:33:03.697Z,19.85
2022-08-30T05:35:32.063Z,19.84
2022-08-30T05:38:00.600Z,19.85
2022-08-30T05:40:29.607Z,19.82
2022-08-30T05:42:58.236Z,19.82
2022-08-30T05:45:26.747Z,19.86
2022-08-30T05:47:55.666Z,19.84
2022-08-30T05:50:25.459Z,19.88
2022-08-30T05:52:53.800Z,19.86
2022-08-30T05:55:22.592Z,19.90
2022-08-30T05:57:50.924Z,19.91
2022-08-30T06:00:20.631Z,19.91
2022-08-30T06:02:49.197Z,19.96
2022-08-30T06:05:17.865Z,19.96
2022-08-30T06:07:47.776Z,20.00
2022-08-30T06:10:16.859Z,20.01
2022-08-30T06:12:45.575Z,20.06
2022-08-30T06:15:14.255Z,20.07
2022-08-30T06:17:42.542Z,20.08
2022-08-30T06:20:12.342Z,20.12
2022-08-30T06:22:41.142Z,20.18
2022-08-30T06:25:12.838Z,20.19
2022-08-30T06:27:42.345Z,20.20
2022-08-30T06:30:12.363Z,20.24
2022-08-30T06:32:41.196Z,20.28
2022-08-30T06:35:13.368Z,20.29
2022-08-30T06:37:42.985Z,20.31
2022-08-30T06:40:16.982Z,20.35
2022-08-30T06:42:45.370Z,20.38
2022-08-30T06:45:13.689Z,20.39
2022-08-30T06:47:45.499Z,20.42
2022-08-30T06:50:15.463Z,20.48
2022-08-30T06:52:45.867Z,20.50
2022-08-30T06:55:18.976Z,20.53
2022-08-30T06:57:48.235Z,20.59
2022-08-30T07:00:18.817Z,20.62
2022-08-30T07:02:47.718Z,20.66
2022-08-30T07:05:22.249Z,20.71
2022-08-30T07:07:50.991Z,20.74
2022-08-30T07:10:21.584Z,20.80
2022-08-30T07:12:50.690Z,20.86
2022-08-30T07:15:23.144Z,20.85
2022-08-30T07:18:08.866Z,20.88
2022-08-30T07:20:40.884Z,20.94
2022-08-30T07:23:09.770Z,20.93
2022-08-30T07:25:40.356Z,21.01
2022-08-30T07:28:10.858Z,21.03
2022-08-30T07:30:40.223Z,21.09
2022-08-30T07:33:09.915Z,21.08
2022-08-30T07:35:38.854Z,21.21
2022-08-30T07:38:07.346Z,21.20
2022-08-30T07:40:35.705Z,21.21
2022-08-30T07:43:05.518Z,21.29
2022-08-30T07:45:33.970Z,21.24
2022-08-30T07:48:04.430Z,21.28
2022-08-30T07:50:32.811Z,21.34
2022-08-30T07:53:05.686Z,21.38
2022-08-30T07:55:36.495Z,21.37
2022-08-30T07:58:06.373Z,21.37
2022-08-30T08:00:34.670Z,21.45
2022-08-30T08:03:08.357Z,21.52
2022-08-30T08:05:40.030Z,21.58
2022-08-30T08:08:08.618Z,21.67
2022-08-30T08:10:39.156Z,21.69
2022-08-30T08:13:09.144Z,21.73
2022-08-30T08:15:38.115Z,21.76
2022-08-30T08:18:07.291Z,21.73
2022-08-30T08:20:36.419Z,21.73
2022-08-30T08:23:05.081Z,21.75
2022-08-30T08:25:34.163Z,21.79
2022-08-30T08:28:02.481Z,21.84
2022-08-30T08:30:36.363Z,21.81
2022-08-30T08:33:05.647Z,21.84
2022-08-30T08:35:35.052Z,21.85
2022-08-30T08:38:03.257Z,21.84
2022-08-30T08:40:37.616Z,21.88
2022-08-30T08:43:13.187Z,21.84
2022-08-30T08:45:53.552Z,21.90
2022-08-30T08:48:45.559Z,21.92
2022-08-30T08:51:39.476Z,21.95
2022-08-30T08:54:12.234Z,21.91
2022-08-30T08:56:40.556Z,21.95
2022-08-30T08:59:11.762Z,21.96
2022-08-30T09:01:42.359Z,22.09
2022-08-30T09:04:17.496Z,22.07
2022-08-30T09:06:56.760Z,22.10
2022-08-30T09:09:30.867Z,22.09
2022-08-30T09:11:59.697Z,22.14
2022-08-30T09:14:32.590Z,22.17
2022-08-30T09:17:07.417Z,22.22
2022-08-30T09:19:43.373Z,22.32
2022-08-30T09:22:23.335Z,22.40
2022-08-30T09:24:56.721Z,22.50
2022-08-30T09:27:30.656Z,22.49
2022-08-30T09:30:03.010Z,22.46
2022-08-30T09:32:36.906Z,22.51
2022-08-30T09:35:08.126Z,22.51
2022-08-30T09:37:46.645Z,22.66
2022-08-30T09:40:23.706Z,22.74
2022-08-30T09:43:12.152Z,22.82
2022-08-30T09:45:43.509Z,22.82
2022-08-30T09:48:30.135Z,22.91
2022-08-30T09:51:26.406Z,22.98
2022-08-30T09:54:18.293Z,23.02
2022-08-30T09:56:58.277Z,23.12
2022-08-30T09:59:46.059Z,23.13
2022-08-30T10:02:39.334Z,23.09
2022-08-30T10:05:17.639Z,23.19
2022-08-30T10:07:56.204Z,23.27
2022-08-30T10:10:37.486Z,23.32
2022-08-30T10:13:38.260Z,23.37
2022-08-30T10:16:21.249Z,23.47
2022-08-30T10:18:59.931Z,23.53
2022-08-30T10:21:37.497Z,23.60
2022-08-30T10:24:10.535Z,23.64
2022-08-30T10:26:45.437Z,23.70
2022-08-30T10:29:21.405Z,23.76
2022-08-30T10:31:55.887Z,23.79
2022-08-30T10:34:29.552Z,23.86
2022-08-30T10:37:09.903Z,23.96
2022-08-30T10:39:44.082Z,24.06
2022-08-30T10:42:21.041Z,24.15
2022-08-30T10:44:55.806Z,24.31
2022-08-30T10:47:31.775Z,24.54
2022-08-30T10:50:09.244Z,24.75
2022-08-30T10:52:46.004Z,25.04
2022-08-30T10:55:19.281Z,25.34
2022-08-30T10:57:48.461Z,25.61
2022-08-30T11:00:26.682Z,25.83
2022-08-30T11:03:17.436Z,25.96
2022-08-30T11:06:05.978Z,26.03
2022-08-30T11:08:58.928Z,26.10
2022-08-30T11:11:40.702Z,26.14
2022-08-30T11:14:15.828Z,26.24
2022-08-30T11:16:48.472Z,26.33
2022-08-30T11:19:22.620Z,26.43
2022-08-30T11:21:52.879Z,26.50
2022-08-30T11:24:25.452Z,26.46
2022-08-30T11:27:31.697Z,26.42
2022-08-30T11:30:51.573Z,26.38
2022-08-30T11:33:47.773Z,26.33
2022-08-30T11:36:49.329Z,26.35
2022-08-30T11:39:51.972Z,26.39
2022-08-30T11:42:30.181Z,26.44
2022-08-30T11:45:36.636Z,26.50
2022-08-30T11:48:10.148Z,26.58
2022-08-30T11:50:53.787Z,26.59
2022-08-30T11:53:30.964Z,26.70
2022-08-30T11:56:10.616Z,26.73
2022-08-30T11:58:49.434Z,26.83
2022-08-30T12:01:50.590Z,26.99
2022-08-30T12:04:36.015Z,27.11
2022-08-30T12:07:08.202Z,27.19
2022-08-30T12:10:06.114Z,27.15
2022-08-30T12:12:56.707Z,27.13
2022-08-30T12:15:54.630Z,27.14
2022-08-30T12:18:28.652Z,27.22
2022-08-30T12:21:01.229Z,27.27
2022-08-30T12:23:44.245Z,27.33
2022-08-30T12:26:21.416Z,27.49
2022-08-30T12:28:51.468Z,27.65
2022-08-30T12:31:24.467Z,27.82
2022-08-30T12:33:58.839Z,27.97
2022-08-30T12:36:39.056Z,28.14
2022-08-30T12:39:25.559Z,28.24
2022-08-30T12:41:58.765Z,28.32
2022-08-30T12:44:37.469Z,28.35
2022-08-30T12:47:09.194Z,28.33
2022-08-30T12:49:39.323Z,28.26
2022-08-30T12:52:20.573Z,28.29
2022-08-30T12:54:55.341Z,28.40
2022-08-30T12:57:44.702Z,28.53
2022-08-30T13:00:27.923Z,28.71
2022-08-30T13:02:59.372Z,28.81
2022-08-30T13:05:34.526Z,28.91
2022-08-30T13:08:20.103Z,28.95
2022-08-30T13:11:04.390Z,29.02
2022-08-30T13:13:59.817Z,29.20
2022-08-30T13:16:36.441Z,29.34
2022-08-30T13:19:27.396Z,29.34
2022-08-30T13:21:58.481Z,29.27
2022-08-30T13:24:29.423Z,29.27
2022-08-30T13:27:06.710Z,29.36
2022-08-30T13:29:52.710Z,29.43
2022-08-30T13:32:22.265Z,29.53
2022-08-30T13:34:53.375Z,29.69
2022-08-30T13:40:17.754Z,29.85
2022-08-30T13:42:49.574Z,30.00
2022-08-30T13:48:10.833Z,30.09
2022-08-30T13:50:39.562Z,30.15
2022-08-30T13:53:09.431Z,30.33
2022-08-30T13:55:41.913Z,30.42
2022-08-30T13:58:16.712Z,30.43
2022-08-30T14:00:48.921Z,30.85
2022-08-30T14:03:22.540Z,31.32
2022-08-30T14:06:21.844Z,31.76
2022-08-30T14:08:46.247Z,32.34
2022-08-30T14:11:22.498Z,32.74
2022-08-30T14:16:46.582Z,32.80
2022-08-30T14:19:16.649Z,33.03
2022-08-30T14:21:52.490Z,33.45
2022-08-30T14:24:23.283Z,33.96
2022-08-30T14:26:56.663Z,34.28
2022-08-30T14:29:31.607Z,34.28
2022-08-30T14:32:04.762Z,34.21
2022-08-30T14:34:33.884Z,34.03
2022-08-30T14:37:06.975Z,34.38
2022-08-30T14:39:35.865Z,34.87
2022-08-30T14:42:09.546Z,35.24
2022-08-30T14:44:55.396Z,35.37
2022-08-30T14:48:04.850Z,35.25
2022-08-30T14:51:00.517Z,34.59
2022-08-30T14:53:31.126Z,34.54
2022-08-30T14:56:06.526Z,34.23
2022-08-30T14:58:39.108Z,33.91
2022-08-30T15:01:16.990Z,33.54
2022-08-30T15:03:59.694Z,33.93
2022-08-30T15:06:32.854Z,34.60
2022-08-30T15:09:16.164Z,35.32
2022-08-30T15:11:49.527Z,35.65
2022-08-30T15:21:24.316Z,36.99
2022-08-30T15:24:29.754Z,37.23
2022-08-30T15:27:03.387Z,37.76
2022-08-30T15:30:20.247Z,38.05
2022-08-30T15:33:08.123Z,38.49
2022-08-30T15:35:52.384Z,38.96
2022-08-30T15:38:27.506Z,39.52
2022-08-30T15:41:20.062Z,40.09
2022-08-30T15:44:00.351Z,40.63
2022-08-30T15:49:38.660Z,41.40
2022-08-30T15:52:09.369Z,41.35
2022-08-30T15:54:48.573Z,41.03
2022-08-30T15:57:21.081Z,40.59
2022-08-30T15:59:55.730Z,40.09
2022-08-30T16:02:26.162Z,39.90
2022-08-30T16:05:01.686Z,40.10
2022-08-30T16:07:40.631Z,40.34
2022-08-30T16:10:12.480Z,40.53
2022-08-30T16:12:52.630Z,40.82
2022-08-30T16:15:27.972Z,41.30
2022-08-30T16:17:59.967Z,41.11
2022-08-30T16:20:29.279Z,40.82
2022-08-30T16:22:57.776Z,40.47
2022-08-30T16:28:48.752Z,39.78
2022-08-30T16:31:21.847Z,39.65
2022-08-30T16:33:54.109Z,39.61
2022-08-30T16:36:36.316Z,39.38
2022-08-30T16:39:14.011Z,38.87
2022-08-30T16:47:37.311Z,38.54
2022-08-30T16:50:07.278Z,38.53
2022-08-30T16:52:36.307Z,38.57
2022-08-30T16:55:15.339Z,38.52
2022-08-30T16:57:47.427Z,38.13
2022-08-30T17:00:20.040Z,37.79
2022-08-30T17:02:55.301Z,37.53
2022-08-30T17:05:50.829Z,37.14
2022-08-30T17:08:42.316Z,36.97
2022-08-30T17:11:12.645Z,36.75
2022-08-30T17:13:51.145Z,36.52
2022-08-30T17:16:36.257Z,36.03
2022-08-30T17:19:12.180Z,35.62
2022-08-30T17:21:43.722Z,35.30
2022-08-30T17:24:16.002Z,35.41
2022-08-30T17:26:51.587Z,35.89
2022-08-30T17:29:26.443Z,36.44
2022-08-30T17:31:55.439Z,36.92
2022-08-30T17:34:28.294Z,37.40
2022-08-30T17:37:00.117Z,37.88
2022-08-30T17:39:30.189Z,38.35
2022-08-30T17:42:03.004Z,38.86
2022-08-30T17:44:50.278Z,39.24
2022-08-30T17:47:19.686Z,39.40
2022-08-30T17:49:50.893Z,39.36
2022-08-30T17:52:21.447Z,39.25
2022-08-30T17:54:51.492Z,38.94
2022-08-30T17:57:23.030Z,38.48
2022-08-30T18:00:00.428Z,37.98
2022-08-30T18:02:42.458Z,37.10
2022-08-30T18:05:34.374Z,36.03
2022-08-30T18:08:07.116Z,35.13
2022-08-30T18:10:40.283Z,34.47
2022-08-30T18:13:09.072Z,33.89
2022-08-30T18:15:44.206Z,33.29
2022-08-30T18:18:16.811Z,32.58
2022-08-30T18:20:49.543Z,31.94
2022-08-30T18:23:24.179Z,31.38
2022-08-30T18:25:58.046Z,30.77
2022-08-30T18:28:29.819Z,30.27
2022-08-30T18:30:58.430Z,29.84
2022-08-30T18:33:28.589Z,29.47
2022-08-30T18:36:01.547Z,29.12
2022-08-30T18:38:33.504Z,28.86
2022-08-30T18:41:06.362Z,28.55
2022-08-30T18:43:37.936Z,28.30
2022-08-30T18:46:10.299Z,28.02
2022-08-30T18:48:55.179Z,27.68
2022-08-30T18:51:25.391Z,27.34
2022-08-30T18:53:57.056Z,27.11
2022-08-30T18:56:33.216Z,26.82
2022-08-30T18:59:08.105Z,26.59
2022-08-30T19:01:40.853Z,26.29
2022-08-30T19:04:22.148Z,26.12
2022-08-30T19:07:13.103Z,25.93
2022-08-30T19:09:43.506Z,25.75
2022-08-30T19:12:13.816Z,25.57
2022-08-30T19:14:43.160Z,25.39
2022-08-30T19:17:11.643Z,25.20
2022-08-30T19:19:47.228Z,25.06
2022-08-30T19:22:22.523Z,24.80
2022-08-30T19:24:53.715Z,24.66
2022-08-30T19:27:37.862Z,24.50
2022-08-30T19:30:17.281Z,24.33
2022-08-30T19:32:53.542Z,24.28
2022-08-30T19:35:22.416Z,24.22
2022-08-30T19:37:56.284Z,24.21
2022-08-30T19:40:27.532Z,24.17
2022-08-30T19:42:56.119Z,24.10
2022-08-30T19:45:27.238Z,24.11
2022-08-30T19:47:58.116Z,24.13
2022-08-30T19:50:30.082Z,24.09
2022-08-30T19:53:09.715Z,24.07
2022-08-30T19:55:39.639Z,24.02
2022-08-30T19:59:06.482Z,24.01
2022-08-30T20:01:36.387Z,24.01
2022-08-30T20:04:11.514Z,23.96
2022-08-30T20:06:45.786Z,23.97
2022-08-30T20:09:24.088Z,23.93
2022-08-30T20:11:59.359Z,23.86
2022-08-30T20:14:31.110Z,23.83
2022-08-30T20:17:02.224Z,23.82
2022-08-30T20:19:32.486Z,23.80
2022-08-30T20:22:07.856Z,23.77
2022-08-30T20:24:43.606Z,23.75
2022-08-30T20:27:12.740Z,23.73
2022-08-30T20:29:44.396Z,23.70
2022-08-30T20:32:13.620Z,23.67
2022-08-30T20:34:44.504Z,23.67
2022-08-30T20:37:20.232Z,23.63
2022-08-30T20:39:55.466Z,23.60
2022-08-30T20:42:25.714Z,23.57
2022-08-30T20:44:55.766Z,23.56
2022-08-30T20:47:24.605Z,23.54
2022-08-30T20:49:53.301Z,23.53
2022-08-30T20:52:27.191Z,23.54
2022-08-30T20:55:00.409Z,23.52
2022-08-30T20:57:32.582Z,23.52
2022-08-30T21:00:04.201Z,23.50
2022-08-30T21:02:35.668Z,23.49
2022-08-30T21:05:07.429Z,23.45
2022-08-30T21:07:35.876Z,23.45
2022-08-30T21:10:10.449Z,23.42
2022-08-30T21:12:39.042Z,23.41
2022-08-30T21:15:36.366Z,23.40
2022-08-30T21:18:08.272Z,23.35
2022-08-30T21:20:37.705Z,23.32
2022-08-30T21:23:05.912Z,23.30
2022-08-30T21:25:40.934Z,23.32
2022-08-30T21:28:09.746Z,23.31
2022-08-30T21:30:38.715Z,23.31
2022-08-30T21:33:08.860Z,23.34
2022-08-30T21:35:55.846Z,23.34
2022-08-30T21:38:24.776Z,23.30
2022-08-30T21:40:54.553Z,23.30
2022-08-30T21:43:22.709Z,23.31
2022-08-30T21:45:53.753Z,23.25
2022-08-30T21:48:22.238Z,23.28
2022-08-30T21:50:50.651Z,23.28
2022-08-30T21:53:19.093Z,23.25
2022-08-30T21:55:48.026Z,23.25
2022-08-30T21:58:18.454Z,23.20
2022-08-30T22:00:49.767Z,23.24
2022-08-30T22:03:18.299Z,23.23
2022-08-30T22:05:52.715Z,23.22
2022-08-30T22:08:20.867Z,23.15
2022-08-30T22:10:49.219Z,23.18
2022-08-30T22:13:19.075Z,23.17
2022-08-30T22:15:48.044Z,23.13
2022-08-30T22:18:16.751Z,23.13
2022-08-30T22:20:51.319Z,23.08
2022-08-30T22:23:20.592Z,23.10
2022-08-30T22:25:51.226Z,23.08
2022-08-30T22:28:21.405Z,22.99
2022-08-30T22:30:49.720Z,23.04
2022-08-30T22:33:19.811Z,23.01
2022-08-30T22:35:48.647Z,22.99
2022-08-30T22:38:17.071Z,23.02
2022-08-30T22:40:46.795Z,23.01
2022-08-30T22:43:15.193Z,23.00
2022-08-30T22:45:45.141Z,23.02
2022-08-30T22:48:13.784Z,22.99
2022-08-30T22:50:42.764Z,23.03
2022-08-30T22:53:11.507Z,23.03
2022-08-30T22:55:41.304Z,23.04
2022-08-30T22:58:09.890Z,23.04
2022-08-30T23:00:40.912Z,23.05
2022-08-30T23:03:18.699Z,23.09
2022-08-30T23:05:47.117Z,23.06
2022-08-30T23:08:16.404Z,23.12
2022-08-30T23:10:47.787Z,23.13
2022-08-30T23:13:16.014Z,23.16
2022-08-30T23:15:44.246Z,23.17
2022-08-30T23:18:12.864Z,23.22
2022-08-30T23:20:42.749Z,23.27
2022-08-30T23:23:11.766Z,23.29
2022-08-30T23:26:00.334Z,23.31
2022-08-30T23:28:46.202Z,23.32
2022-08-30T23:31:33.960Z,23.37
2022-08-30T23:34:22.143Z,23.39
2022-08-30T23:37:09.208Z,23.35
2022-08-30T23:39:56.367Z,23.36
2022-08-30T23:42:42.303Z,23.25
2022-08-30T23:45:34.830Z,23.29
2022-08-30T23:48:20.892Z,23.24
2022-08-30T23:51:22.006Z,23.19
2022-08-30T23:54:09.465Z,23.17
2022-08-30T23:56:56.300Z,23.10
2022-08-30T23:59:45.224Z,23.14
